首页
METAR-TAF:

METAR-TAF

机场 :

格尔夫海岸, 阿拉巴马州, 美国

纬度: 30-17-23N, 经度: 087-40-18W, 海拔: 5米

当前天气观测

该预报发布于22分钟前的09:55 UTC
风速7节,风向南转西南
温度 28°C
湿度 89%
气压 1016 hPa
能見度: 16.1公里
天空无云

METAR: KJKA 200955Z AUTO 21007KT 10SM CLR 28/26 A3001 RMK AO2 LTG DSNT SW

时间: 05:17 (10:17 UTC)

预报

该预报发布于4小时和25分钟前的05:52 UTC
预报有效从20日的 06点(UTC)到 21日的 06点(UTC)
风速7节,风向南转南东
能見度: 10公里
少量云层高于2400英尺, 积雨云.
散云层高于6000英尺
散云层高于7000英尺
附近有雷暴
短暂存在
从 20日的 09点(UTC)到 20日的 13点(UTC)
能見度: 6.4公里
多云层高于2300英尺, 积雨云.
多云层高于2500英尺
多云层高于2800英尺
雷暴, 雨, 轻雾
从 20日的 1300点(UTC)
风速7节,风向
能見度: 10公里
散云层高于2800英尺, 积雨云.
多云层高于9000英尺
附近有雷暴
几率 30%
从 20日的 16点(UTC)到 20日的 22点(UTC)
能見度: 6.4公里
多云层高于2700英尺, 积雨云.
雷暴, 雨, 轻雾,

TAF: KJKA 200552Z 2006/2106 15007KT P6SM VCTS FEW024CB SCT060 SCT070 TEMPO 2009/2013 4SM TSRA BR BKN023CB BKN025 BKN028 FM201300 18007KT P6SM VCTS SCT028CB BKN090 PROB30 2016/2022 4SM TSRA BR BKN027CB

超过4000个机场的气象观测和天气预报(METAR&TAF报告)。

可查询的气象台以黄色和红色小点在地图上表示。

将鼠标移到小点上方,可查看气象台名称。

然后点击查看天气观测和预报。

如需切换地图:点击带黑十字的绿色按钮放大地图;点击带横线的绿色按钮缩小地图;或者点击绿色箭头查看邻近地区的地图。


METAR-TAF: